Time;durP1;ratioP1;P1;durP2;ratioP2;P2;SDS_P1;SDS_P2;PMS_P1;PMS_P2;Temp;Humidity;BMP_temperature;BMP_pressure;BME280_temperature;BME280_humidity;BME280_pressure;Samples;Min_cycle;Max_cycle;Signal;HPM_P1;HPM_P2
2022/09/25 00:00:41;;;;;;;17.58;10.90;;;8.10;75.00;;;;;;5041923;28;20048;-66
2022/09/25 00:03:07;;;;;;;16.70;11.55;;;8.20;75.10;;;;;;5049429;28;20024;-65
2022/09/25 00:05:41;;;;;;;14.13;10.70;;;8.30;75.20;;;;;;5053101;28;20029;-66
2022/09/25 00:08:07;;;;;;;18.23;12.13;;;8.20;75.20;;;;;;5044468;28;20042;-67
2022/09/25 00:10:34;;;;;;;12.95;9.60;;;8.10;75.10;;;;;;5046435;28;20043;-67
2022/09/25 00:13:00;;;;;;;14.60;10.55;;;8.10;75.10;;;;;;5044348;28;20884;-67
2022/09/25 00:15:25;;;;;;;15.98;10.68;;;8.10;75.10;;;;;;5045995;28;20389;-66
2022/09/25 00:17:51;;;;;;;19.60;12.27;;;8.10;75.10;;;;;;5051369;28;20025;-66
2022/09/25 00:20:19;;;;;;;12.35;9.02;;;8.10;75.20;;;;;;5049337;28;20025;-67
2022/09/25 00:22:46;;;;;;;19.77;11.48;;;8.00;75.30;;;;;;5054078;28;20541;-67
2022/09/25 00:25:14;;;;;;;39.13;19.15;;;8.00;75.10;;;;;;5046629;28;20125;-67
2022/09/25 00:27:41;;;;;;;16.25;11.13;;;8.10;75.30;;;;;;5034127;28;20017;-66
2022/09/25 00:30:08;;;;;;;16.92;11.27;;;8.00;75.10;;;;;;5049986;28;20051;-67
2022/09/25 00:32:34;;;;;;;18.88;11.60;;;7.90;75.30;;;;;;5042557;28;20329;-66
2022/09/25 00:35:00;;;;;;;10.95;9.00;;;7.80;75.20;;;;;;5041585;28;20044;-66
2022/09/25 00:37:27;;;;;;;16.75;11.65;;;7.90;75.20;;;;;;5042870;28;20033;-66
2022/09/25 00:39:53;;;;;;;11.85;9.07;;;7.90;75.30;;;;;;5046435;28;20100;-67
2022/09/25 00:42:21;;;;;;;23.92;13.38;;;7.80;75.20;;;;;;5025137;28;20907;-67
2022/09/25 00:45:01;;;;;;;19.83;12.23;;;7.90;75.30;;;;;;5041925;28;20033;-67
2022/09/25 00:47:50;;;;;;;21.45;14.05;;;7.90;75.30;;;;;;5038574;28;20419;-66
2022/09/25 00:50:37;;;;;;;19.08;11.55;;;7.90;75.40;;;;;;5041806;28;20061;-66
2022/09/25 00:53:10;;;;;;;11.80;9.02;;;7.90;75.30;;;;;;5056157;28;20300;-67
2022/09/25 00:55:39;;;;;;;23.90;14.00;;;8.00;75.30;;;;;;5045732;28;20418;-67
2022/09/25 00:58:05;;;;;;;21.48;13.98;;;8.00;75.40;;;;;;5040483;28;20029;-67
2022/09/25 01:00:33;;;;;;;18.67;12.60;;;8.10;75.40;;;;;;5047935;28;20067;-67
2022/09/25 01:03:00;;;;;;;18.98;13.32;;;8.20;75.40;;;;;;5037727;28;20365;-66
2022/09/25 01:05:35;;;;;;;21.30;14.63;;;8.30;75.50;;;;;;5039647;28;20017;-67
2022/09/25 01:08:04;;;;;;;22.30;15.45;;;8.40;75.60;;;;;;5040661;28;20037;-67
2022/09/25 01:10:30;;;;;;;23.00;14.50;;;8.50;75.60;;;;;;5037420;28;20100;-67
2022/09/25 01:12:59;;;;;;;19.02;13.00;;;8.50;75.40;;;;;;5034718;28;20430;-67
2022/09/25 01:15:43;;;;;;;16.83;12.43;;;8.50;75.40;;;;;;5045415;28;20083;-67
2022/09/25 01:18:16;;;;;;;20.23;13.50;;;8.50;75.50;;;;;;5043747;28;20059;-67
2022/09/25 01:21:04;;;;;;;14.70;9.93;;;8.30;75.20;;;;;;5042268;28;20422;-66
2022/09/25 01:23:58;;;;;;;16.85;12.82;;;8.10;75.10;;;;;;5041864;28;20163;-65
2022/09/25 01:26:23;;;;;;;19.05;12.90;;;8.00;75.00;;;;;;5046731;28;20029;-65
2022/09/25 01:28:56;;;;;;;24.73;15.93;;;8.10;75.40;;;;;;5039143;28;20026;-66
2022/09/25 01:31:47;;;;;;;27.45;15.80;;;8.20;75.30;;;;;;5039121;28;20425;-69
2022/09/25 01:34:20;;;;;;;22.20;14.82;;;8.20;75.40;;;;;;5041197;28;20057;-67
2022/09/25 01:37:08;;;;;;;18.52;12.85;;;8.20;75.30;;;;;;5039521;28;20090;-66
2022/09/25 01:39:44;;;;;;;23.48;15.45;;;8.20;75.30;;;;;;5036042;28;20406;-66
2022/09/25 01:42:31;;;;;;;27.00;16.08;;;8.20;75.30;;;;;;5038503;28;20045;-66
2022/09/25 01:45:09;;;;;;;26.15;16.67;;;8.20;75.30;;;;;;5044218;28;20128;-67
2022/09/25 01:47:38;;;;;;;22.05;15.15;;;8.30;75.30;;;;;;5051429;28;20025;-66
2022/09/25 01:50:13;;;;;;;23.30;14.38;;;8.30;75.30;;;;;;5020976;28;20288;-66
2022/09/25 01:52:46;;;;;;;20.70;13.27;;;8.20;75.20;;;;;;5031666;28;20617;-66
2022/09/25 01:55:18;;;;;;;20.27;12.23;;;8.00;75.10;;;;;;5039044;28;20025;-66
2022/09/25 01:58:06;;;;;;;23.55;14.73;;;7.80;75.10;;;;;;5042734;28;20029;-66
2022/09/25 02:00:36;;;;;;;20.65;13.93;;;7.80;75.10;;;;;;5023863;28;20041;-65
2022/09/25 02:03:16;;;;;;;25.75;16.48;;;8.00;75.40;;;;;;5039013;28;20131;-66
2022/09/25 02:05:51;;;;;;;19.85;13.15;;;8.10;75.50;;;;;;5023927;28;20059;-66
2022/09/25 02:08:25;;;;;;;;;;;8.10;75.40;;;;;;5025012;28;20087;-66
2022/09/25 02:11:01;;;;;;;27.17;15.95;;;8.20;75.30;;;;;;5022150;28;20016;-66
2022/09/25 02:13:37;;;;;;;26.33;17.20;;;8.20;75.30;;;;;;5024712;28;20037;-66
2022/09/25 02:16:10;;;;;;;26.77;16.52;;;8.20;75.20;;;;;;5025745;28;20032;-66
2022/09/25 02:21:54;;;;;;;30.10;17.75;;;8.20;75.20;;;;;;5022659;28;20149;-66
2022/09/25 02:24:32;;;;;;;28.85;17.45;;;8.20;75.10;;;;;;5035407;28;20029;-66
2022/09/25 02:26:58;;;;;;;24.10;16.25;;;8.30;75.20;;;;;;5040361;28;20045;-65
2022/09/25 02:29:24;;;;;;;27.35;17.00;;;8.30;75.30;;;;;;5051073;28;20036;-66
2022/09/25 02:31:55;;;;;;;31.58;18.35;;;8.40;75.40;;;;;;5044337;28;20025;-66
2022/09/25 02:34:22;;;;;;;30.70;18.13;;;8.50;75.30;;;;;;5043474;28;20029;-65
2022/09/25 02:36:47;;;;;;;25.20;16.23;;;8.50;75.20;;;;;;5045780;28;20430;-66
2022/09/25 02:39:17;;;;;;;26.13;14.77;;;8.50;75.20;;;;;;5050283;28;20063;-66
2022/09/25 02:41:48;;;;;;;26.23;17.02;;;8.50;75.20;;;;;;5047226;28;20968;-66
2022/09/25 02:44:48;;;;;;;23.02;15.52;;;8.50;75.10;;;;;;5054377;28;20028;-66
2022/09/25 02:47:24;;;;;;;28.88;17.17;;;8.50;75.20;;;;;;5054442;28;20108;-66
2022/09/25 02:49:54;;;;;;;22.52;15.10;;;8.50;75.10;;;;;;5053398;28;20021;-67
2022/09/25 02:52:46;;;;;;;30.20;18.48;;;8.40;75.10;;;;;;5031170;28;20047;-65
2022/09/25 02:55:36;;;;;;;19.02;12.32;;;8.50;75.10;;;;;;5038475;28;20043;-67
2022/09/25 02:58:23;;;;;;;27.30;15.07;;;8.40;74.90;;;;;;5045170;28;20033;-67
2022/09/25 03:00:52;;;;;;;25.10;15.25;;;8.30;74.80;;;;;;5044370;28;20035;-66
2022/09/25 03:03:23;;;;;;;24.48;15.60;;;8.30;74.90;;;;;;5043018;28;20029;-66
2022/09/25 03:05:51;;;;;;;14.75;10.40;;;8.40;75.00;;;;;;5021352;28;20083;-65
2022/09/25 03:08:37;;;;;;;15.00;11.20;;;8.40;74.90;;;;;;5051157;28;20036;-66
2022/09/25 03:11:04;;;;;;;24.27;15.23;;;8.30;74.80;;;;;;5042130;28;20031;-67
2022/09/25 03:13:31;;;;;;;20.02;12.60;;;8.30;74.70;;;;;;5047064;28;20025;-67
2022/09/25 03:16:26;;;;;;;22.95;13.77;;;8.20;74.70;;;;;;5048485;28;20026;-66
2022/09/25 03:18:51;;;;;;;21.77;15.05;;;8.30;74.80;;;;;;5047550;28;20063;-66
2022/09/25 03:21:17;;;;;;;37.42;19.80;;;8.40;75.00;;;;;;5047755;28;20033;-66
2022/09/25 03:23:42;;;;;;;18.58;13.73;;;8.50;75.10;;;;;;5048358;28;20020;-66
2022/09/25 03:26:08;;;;;;;23.58;14.55;;;8.60;75.00;;;;;;5031617;28;20353;-66
2022/09/25 03:28:34;;;;;;;18.20;13.20;;;8.60;75.00;;;;;;5050098;28;20032;-66
2022/09/25 03:31:10;;;;;;;15.90;10.05;;;8.60;74.90;;;;;;5049846;28;20037;-66
2022/09/25 03:33:41;;;;;;;14.23;8.75;;;8.60;74.70;;;;;;5045002;28;20333;-66
2022/09/25 03:36:09;;;;;;;14.82;10.82;;;8.50;74.60;;;;;;5044816;28;20087;-67
2022/09/25 03:38:36;;;;;;;12.57;9.23;;;8.50;74.60;;;;;;5047396;28;20028;-66
2022/09/25 03:41:08;;;;;;;16.10;11.48;;;8.40;74.50;;;;;;5044353;28;20029;-66
2022/09/25 03:43:38;;;;;;;12.10;8.55;;;8.40;74.50;;;;;;5047309;28;20017;-66
2022/09/25 03:46:05;;;;;;;20.70;13.25;;;8.50;74.70;;;;;;5052494;28;20017;-66
2022/09/25 03:48:31;;;;;;;18.63;12.98;;;8.50;74.80;;;;;;5041095;28;20291;-66
2022/09/25 03:50:57;;;;;;;15.20;10.70;;;8.40;74.60;;;;;;5043934;28;20033;-66
2022/09/25 03:53:24;;;;;;;11.95;8.63;;;8.40;74.50;;;;;;5052661;28;20063;-67
2022/09/25 03:55:50;;;;;;;14.55;9.07;;;8.40;74.50;;;;;;5045360;28;20067;-66
2022/09/25 03:58:16;;;;;;;16.55;10.93;;;8.50;74.80;;;;;;5043317;28;20393;-66
2022/09/25 04:00:44;;;;;;;15.18;10.82;;;8.50;74.70;;;;;;5041342;28;20120;-66
2022/09/25 04:03:10;;;;;;;12.77;9.57;;;8.40;74.60;;;;;;5051497;28;20013;-66
2022/09/25 04:05:36;;;;;;;20.95;12.80;;;8.30;74.50;;;;;;5041447;28;20032;-66
2022/09/25 04:08:02;;;;;;;19.27;12.73;;;8.30;74.40;;;;;;5049249;28;20036;-66
2022/09/25 04:10:27;;;;;;;16.08;10.43;;;8.30;74.20;;;;;;5033263;28;20025;-67
2022/09/25 04:12:54;;;;;;;23.83;14.60;;;8.30;74.30;;;;;;5012289;28;21692;-66
2022/09/25 04:15:23;;;;;;;18.88;11.50;;;8.40;74.50;;;;;;5033909;28;20043;-66
2022/09/25 04:17:51;;;;;;;20.02;12.25;;;8.50;74.70;;;;;;5043492;28;20099;-65
2022/09/25 04:20:18;;;;;;;22.50;13.45;;;8.70;74.60;;;;;;5043508;28;20353;-66
2022/09/25 04:22:44;;;;;;;18.45;12.60;;;8.90;74.80;;;;;;5043409;28;20607;-66
2022/09/25 04:25:09;;;;;;;14.30;11.27;;;9.00;74.80;;;;;;5030539;28;20056;-66
2022/09/25 04:27:35;;;;;;;14.45;10.90;;;9.10;74.60;;;;;;5042478;28;20056;-66
2022/09/25 04:30:04;;;;;;;17.02;10.30;;;9.20;74.50;;;;;;5041459;28;20020;-66
2022/09/25 04:35:14;;;;;;;21.13;14.32;;;9.10;74.10;;;;;;5043340;28;20047;-66
2022/09/25 04:37:39;;;;;;;16.30;11.73;;;9.10;73.90;;;;;;5036251;28;20060;-66
2022/09/25 04:40:06;;;;;;;12.98;9.40;;;9.10;73.90;;;;;;5044595;28;20024;-66
2022/09/25 04:42:31;;;;;;;12.85;9.32;;;9.10;73.90;;;;;;5049304;28;20025;-66
2022/09/25 04:44:57;;;;;;;22.90;13.63;;;9.20;74.20;;;;;;5048343;28;21768;-66
2022/09/25 04:47:25;;;;;;;30.35;15.57;;;9.30;74.30;;;;;;5038818;28;20036;-66
2022/09/25 04:49:51;;;;;;;13.70;9.55;;;9.30;74.10;;;;;;5046575;28;20111;-66
2022/09/25 04:52:18;;;;;;;11.52;8.60;;;9.20;73.80;;;;;;5047692;28;20029;-66
2022/09/25 04:54:45;;;;;;;12.35;9.50;;;9.20;73.80;;;;;;5046149;28;20345;-66
2022/09/25 04:57:18;;;;;;;13.20;9.68;;;9.20;73.80;;;;;;5048188;28;20361;-66
2022/09/25 04:59:44;;;;;;;29.13;16.70;;;9.20;73.90;;;;;;5046448;28;20029;-66
2022/09/25 05:02:14;;;;;;;13.70;10.52;;;9.20;73.90;;;;;;5042205;28;20033;-66
2022/09/25 05:04:40;;;;;;;12.20;9.05;;;9.20;73.70;;;;;;5040317;28;20104;-66
2022/09/25 05:07:06;;;;;;;13.15;9.80;;;9.20;73.80;;;;;;5045381;28;20429;-66
2022/09/25 05:09:32;;;;;;;12.48;9.23;;;9.30;73.90;;;;;;5046020;28;20021;-66
2022/09/25 05:11:58;;;;;;;20.77;13.27;;;9.40;74.20;;;;;;5043472;28;20033;-66
2022/09/25 05:14:27;;;;;;;15.18;11.27;;;9.30;74.10;;;;;;5048019;28;20044;-66
2022/09/25 05:16:52;;;;;;;12.18;9.35;;;9.40;74.10;;;;;;5048793;28;20074;-66
2022/09/25 05:19:18;;;;;;;17.40;11.88;;;9.40;74.00;;;;;;5051652;28;20392;-66
2022/09/25 05:21:43;;;;;;;19.30;12.77;;;9.40;74.00;;;;;;5046346;28;20035;-66
2022/09/25 05:24:09;;;;;;;16.85;12.35;;;9.40;73.90;;;;;;5048040;28;20036;-66
2022/09/25 05:26:36;;;;;;;12.60;10.00;;;9.40;73.90;;;;;;5051476;28;20039;-65
2022/09/25 05:29:03;;;;;;;13.55;9.43;;;9.50;73.90;;;;;;5043054;28;20629;-66
2022/09/25 05:31:30;;;;;;;17.13;10.95;;;9.50;73.90;;;;;;5050407;28;20117;-66
2022/09/25 05:33:55;;;;;;;15.10;10.35;;;9.40;73.80;;;;;;5045905;28;20045;-65
2022/09/25 05:36:21;;;;;;;11.10;8.35;;;9.40;73.80;;;;;;5029145;28;20114;-65
2022/09/25 05:38:47;;;;;;;16.88;11.18;;;9.40;73.80;;;;;;5048914;28;20024;-65
2022/09/25 05:41:12;;;;;;;17.48;11.30;;;9.50;74.00;;;;;;5043286;28;20045;-65
2022/09/25 05:43:45;;;;;;;22.88;12.43;;;9.50;73.90;;;;;;5042324;28;20030;-67
2022/09/25 05:46:11;;;;;;;21.27;13.27;;;9.50;74.00;;;;;;5039724;28;20033;-67
2022/09/25 05:48:37;;;;;;;20.08;13.18;;;9.50;74.00;;;;;;5041484;28;20021;-66
2022/09/25 05:51:05;;;;;;;16.65;12.00;;;9.60;74.00;;;;;;5043704;28;20154;-66
2022/09/25 05:53:31;;;;;;;21.45;13.88;;;9.60;74.00;;;;;;5038627;28;20035;-68
2022/09/25 05:56:02;;;;;;;14.88;11.90;;;9.70;74.00;;;;;;5042831;28;20037;-65
2022/09/25 05:58:29;;;;;;;16.27;11.45;;;9.70;73.90;;;;;;5043051;28;20068;-65
2022/09/25 06:01:04;;;;;;;28.83;15.98;;;9.80;73.90;;;;;;5040137;28;20041;-64
2022/09/25 06:03:31;;;;;;;18.13;12.27;;;9.80;73.80;;;;;;5048218;28;20028;-65
2022/09/25 06:05:58;;;;;;;17.73;12.13;;;9.80;73.80;;;;;;5050782;28;20478;-64
2022/09/25 06:08:25;;;;;;;11.73;9.30;;;9.80;73.70;;;;;;5060513;28;20025;-65
2022/09/25 06:10:54;;;;;;;14.00;9.90;;;9.70;73.60;;;;;;5043312;28;20040;-66
2022/09/25 06:13:24;;;;;;;12.35;8.55;;;9.70;73.60;;;;;;5044805;28;20029;-66
2022/09/25 06:15:51;;;;;;;13.32;9.45;;;9.90;73.70;;;;;;5041602;28;20127;-66
2022/09/25 06:18:19;;;;;;;16.40;11.20;;;10.00;74.10;;;;;;5040788;28;20444;-69
2022/09/25 06:20:45;;;;;;;23.85;14.85;;;10.20;74.40;;;;;;5037282;28;20034;-65
2022/09/25 06:23:11;;;;;;;14.45;10.75;;;10.40;74.40;;;;;;5040527;28;20029;-68
2022/09/25 06:25:36;;;;;;;21.60;14.25;;;10.70;74.70;;;;;;5040578;28;20105;-66
2022/09/25 06:28:05;;;;;;;14.68;10.75;;;10.90;74.80;;;;;;5036387;28;20052;-66
2022/09/25 06:30:33;;;;;;;18.85;12.20;;;11.10;74.60;;;;;;5049719;28;20033;-67
2022/09/25 06:33:00;;;;;;;19.42;13.90;;;11.10;73.90;;;;;;5047882;28;20057;-64
2022/09/25 06:35:30;;;;;;;21.30;14.18;;;11.10;73.50;;;;;;5043685;28;20053;-66
2022/09/25 06:37:57;;;;;;;21.98;16.00;;;11.20;73.30;;;;;;5047242;28;20043;-66
2022/09/25 06:40:27;;;;;;;20.30;14.40;;;11.20;73.20;;;;;;5043343;28;20055;-65
2022/09/25 06:42:57;;;;;;;14.55;11.63;;;11.30;73.10;;;;;;5039803;28;20056;-66
2022/09/25 06:45:25;;;;;;;26.50;17.42;;;11.30;73.00;;;;;;5053689;28;20060;-66
2022/09/25 06:47:56;;;;;;;20.33;14.52;;;11.30;72.90;;;;;;5042644;28;20036;-66
2022/09/25 06:50:24;;;;;;;21.08;15.70;;;11.20;72.80;;;;;;5035276;28;20060;-66
2022/09/25 06:52:50;;;;;;;33.20;22.35;;;11.10;72.40;;;;;;5039674;28;20025;-67
2022/09/25 06:55:16;;;;;;;34.00;22.73;;;11.00;72.40;;;;;;5021114;28;20039;-66
2022/09/25 06:57:44;;;;;;;67.40;40.92;;;11.00;72.60;;;;;;5047627;28;20049;-67
2022/09/25 07:00:10;;;;;;;83.72;49.47;;;11.20;72.80;;;;;;5037678;28;20021;-66
2022/09/25 07:05:21;;;;;;;60.50;39.40;;;11.20;72.40;;;;;;5043108;28;20036;-66
2022/09/25 07:07:47;;;;;;;57.55;40.67;;;11.20;72.30;;;;;;5042841;28;20033;-66
2022/09/25 07:10:15;;;;;;;43.05;29.65;;;11.20;72.40;;;;;;5030501;28;20170;-66
2022/09/25 07:12:41;;;;;;;27.50;21.33;;;11.10;72.20;;;;;;5049404;28;20072;-67
2022/09/25 07:15:07;;;;;;;20.70;16.35;;;11.00;72.20;;;;;;5039434;28;20056;-66
2022/09/25 07:17:33;;;;;;;24.10;17.85;;;10.90;72.10;;;;;;5055017;28;20021;-65
2022/09/25 07:19:59;;;;;;;20.90;15.48;;;10.90;72.10;;;;;;5050522;28;20441;-67
2022/09/25 07:22:25;;;;;;;23.58;16.13;;;10.90;72.00;;;;;;5050811;28;20029;-65
2022/09/25 07:24:51;;;;;;;21.15;16.45;;;10.90;71.90;;;;;;5024860;28;20040;-67
2022/09/25 07:27:17;;;;;;;20.30;16.98;;;10.90;72.00;;;;;;5034451;28;20028;-66
2022/09/25 07:29:42;;;;;;;20.30;15.48;;;10.90;72.10;;;;;;5044377;28;20033;-66
2022/09/25 07:32:09;;;;;;;15.73;12.30;;;10.90;72.20;;;;;;5047762;28;20107;-66
2022/09/25 07:34:36;;;;;;;17.73;13.13;;;11.00;71.90;;;;;;5044436;28;20032;-66
2022/09/25 07:37:02;;;;;;;16.45;13.35;;;10.90;72.10;;;;;;5041177;28;20025;-66
2022/09/25 07:39:28;;;;;;;17.80;13.30;;;11.10;72.00;;;;;;5052092;28;20074;-66
2022/09/25 07:41:54;;;;;;;19.80;16.58;;;11.10;72.20;;;;;;5045960;28;20065;-66
2022/09/25 07:44:20;;;;;;;11.10;9.15;;;11.30;72.50;;;;;;5046990;28;20078;-66
2022/09/25 07:46:45;;;;;;;13.95;8.73;;;11.40;71.90;;;;;;5044462;28;20025;-65
2022/09/25 07:49:11;;;;;;;9.95;8.20;;;11.50;72.40;;;;;;5047032;28;20063;-65
2022/09/25 07:51:37;;;;;;;10.30;7.97;;;11.60;73.30;;;;;;5052051;28;20029;-66
2022/09/25 07:54:03;;;;;;;12.27;9.50;;;11.60;74.40;;;;;;5046035;28;20032;-65
2022/09/25 07:56:28;;;;;;;17.25;12.75;;;11.70;74.00;;;;;;5041487;28;20334;-66
2022/09/25 07:58:54;;;;;;;10.85;8.90;;;11.60;74.80;;;;;;5045138;28;20044;-65
2022/09/25 08:01:19;;;;;;;12.98;9.38;;;11.60;74.90;;;;;;5042028;28;20457;-67
2022/09/25 08:03:46;;;;;;;12.75;9.30;;;11.80;75.30;;;;;;5050099;28;20116;-67
2022/09/25 08:06:12;;;;;;;11.05;8.93;;;11.80;78.40;;;;;;5053229;28;20349;-67
2022/09/25 08:08:40;;;;;;;14.00;10.50;;;11.90;77.30;;;;;;5050082;28;20025;-66
2022/09/25 08:11:10;;;;;;;11.77;8.82;;;12.00;78.70;;;;;;5049043;28;20110;-66
2022/09/25 08:13:37;;;;;;;17.92;12.38;;;12.00;80.10;;;;;;5042391;28;20037;-66
2022/09/25 08:16:10;;;;;;;12.40;10.15;;;12.10;80.30;;;;;;5045263;28;20408;-66
2022/09/25 08:18:37;;;;;;;17.90;12.10;;;12.20;80.80;;;;;;5023851;28;20021;-66
2022/09/25 08:21:03;;;;;;;16.52;10.68;;;12.00;85.50;;;;;;5053732;28;20036;-66
2022/09/25 08:23:30;;;;;;;13.10;9.23;;;11.90;88.20;;;;;;5051120;28;20071;-66
2022/09/25 08:25:56;;;;;;;18.70;13.30;;;11.80;88.10;;;;;;5048699;28;20029;-66
2022/09/25 08:28:22;;;;;;;16.00;11.15;;;11.70;89.00;;;;;;5050870;28;20017;-65
2022/09/25 08:30:48;;;;;;;14.95;10.80;;;11.70;88.90;;;;;;5051058;28;20028;-65
2022/09/25 08:33:13;;;;;;;20.67;14.25;;;11.70;87.00;;;;;;5053617;28;20425;-65
2022/09/25 08:35:42;;;;;;;14.55;10.75;;;11.80;88.50;;;;;;5046842;28;20057;-65
2022/09/25 08:38:11;;;;;;;14.73;11.15;;;11.80;87.90;;;;;;5050288;28;20037;-67
2022/09/25 08:40:52;;;;;;;13.40;9.65;;;11.90;86.20;;;;;;5053581;28;20392;-68
2022/09/25 08:43:22;;;;;;;13.65;9.93;;;12.30;81.80;;;;;;5047583;28;20037;-67
2022/09/25 08:49:01;;;;;;;10.32;7.20;;;13.10;84.10;;;;;;5047415;28;20075;-67
2022/09/25 08:51:37;;;;;;;9.50;7.13;;;13.50;92.20;;;;;;5054254;28;20104;-67
2022/09/25 08:54:04;;;;;;;10.93;7.25;;;13.60;94.30;;;;;;5044900;28;20159;-66
2022/09/25 08:56:31;;;;;;;8.18;6.80;;;13.80;98.00;;;;;;5046727;28;20104;-66
2022/09/25 08:59:27;;;;;;;10.40;7.28;;;13.90;98.00;;;;;;5044259;28;20163;-66
2022/09/25 09:02:00;;;;;;;7.68;5.95;;;13.90;98.00;;;;;;5032373;28;20064;-65
2022/09/25 09:04:37;;;;;;;9.15;7.05;;;14.20;98.00;;;;;;5042695;28;20020;-65
2022/09/25 09:07:24;;;;;;;11.52;6.30;;;14.30;98.00;;;;;;5037194;28;20072;-66
2022/09/25 09:10:14;;;;;;;8.43;6.38;;;14.80;98.00;;;;;;5036139;28;20525;-66
2022/09/25 09:13:04;;;;;;;8.90;6.90;;;15.10;98.00;;;;;;5043592;28;20112;-65
2022/09/25 09:16:00;;;;;;;9.15;6.32;;;15.40;98.00;;;;;;5044251;28;20322;-65
2022/09/25 09:18:31;;;;;;;8.27;5.45;;;15.80;98.00;;;;;;5018107;28;20097;-66
2022/09/25 09:21:00;;;;;;;9.05;5.07;;;16.80;97.50;;;;;;5047559;28;20559;-65
2022/09/25 09:23:39;;;;;;;8.57;4.15;;;18.00;93.30;;;;;;5047966;28;20029;-65
2022/09/25 09:26:34;;;;;;;8.27;4.85;;;20.00;91.40;;;;;;5042030;28;20017;-65
2022/09/25 09:29:09;;;;;;;7.20;4.80;;;21.00;83.30;;;;;;5049948;28;20044;-66
2022/09/25 09:31:41;;;;;;;8.05;4.70;;;19.50;84.50;;;;;;5044461;28;20291;-65
2022/09/25 09:34:35;;;;;;;6.28;3.95;;;18.30;90.20;;;;;;5040315;28;20025;-64
2022/09/25 09:37:18;;;;;;;6.28;3.80;;;17.80;88.00;;;;;;5044460;28;20047;-65
2022/09/25 09:40:01;;;;;;;6.30;3.75;;;18.00;90.30;;;;;;5049696;28;20037;-66
2022/09/25 09:42:36;;;;;;;5.70;3.70;;;18.70;87.90;;;;;;5045113;28;20108;-66
2022/09/25 09:45:31;;;;;;;5.40;2.75;;;20.10;82.80;;;;;;5048745;28;20025;-66
2022/09/25 09:48:15;;;;;;;6.82;3.78;;;19.90;81.30;;;;;;5050464;28;20021;-67
2022/09/25 09:50:46;;;;;;;7.22;3.58;;;18.70;83.60;;;;;;5049183;28;20029;-66
2022/09/25 09:53:22;;;;;;;6.28;3.65;;;18.00;86.50;;;;;;5052031;28;20044;-66
2022/09/25 09:55:52;;;;;;;10.20;4.68;;;17.50;86.60;;;;;;5052088;28;20465;-66
2022/09/25 09:58:30;;;;;;;6.75;4.53;;;16.70;90.30;;;;;;5052177;28;20437;-66
2022/09/25 10:00:59;;;;;;;6.75;4.93;;;16.70;90.20;;;;;;5046974;28;20338;-65
2022/09/25 10:03:33;;;;;;;7.32;5.07;;;16.60;91.60;;;;;;5043843;28;20017;-65
2022/09/25 10:06:02;;;;;;;8.45;5.63;;;16.30;92.10;;;;;;5046511;28;20017;-64
2022/09/25 10:08:29;;;;;;;7.57;4.68;;;16.80;92.40;;;;;;5053348;28;20028;-65
2022/09/25 10:10:54;;;;;;;9.93;5.43;;;17.00;90.80;;;;;;5042730;28;20602;-65
2022/09/25 10:13:25;;;;;;;8.93;4.25;;;16.80;90.00;;;;;;5043814;28;20120;-64
2022/09/25 10:16:03;;;;;;;6.70;4.10;;;17.60;89.00;;;;;;5045943;28;20108;-64
2022/09/25 10:18:39;;;;;;;6.60;4.10;;;18.60;84.50;;;;;;5053983;28;20096;-66
2022/09/25 10:21:20;;;;;;;5.53;4.13;;;18.20;85.00;;;;;;5049895;28;20037;-64
2022/09/25 10:23:48;;;;;;;6.20;4.18;;;17.40;86.10;;;;;;5040636;28;20032;-63
2022/09/25 10:26:34;;;;;;;8.65;4.72;;;16.80;88.70;;;;;;5043435;28;20307;-66
2022/09/25 10:29:23;;;;;;;8.48;5.18;;;17.30;86.80;;;;;;5043956;28;20025;-66
2022/09/25 10:31:58;;;;;;;7.80;5.03;;;17.10;86.50;;;;;;5041558;28;20025;-66
2022/09/25 10:34:26;;;;;;;8.13;5.68;;;16.80;87.00;;;;;;5050948;28;20035;-65
2022/09/25 10:36:53;;;;;;;9.05;5.68;;;16.40;88.90;;;;;;5051804;28;20036;-65
2022/09/25 10:39:39;;;;;;;10.15;6.25;;;16.20;90.70;;;;;;5043856;28;20108;-65
2022/09/25 10:42:26;;;;;;;12.70;6.85;;;15.90;91.40;;;;;;5047581;28;20029;-65
2022/09/25 10:44:55;;;;;;;12.25;6.50;;;15.70;92.10;;;;;;5040497;28;20028;-65
2022/09/25 10:50:25;;;;;;;9.07;5.80;;;15.50;92.00;;;;;;5048404;28;20036;-66
2022/09/25 10:52:58;;;;;;;9.23;5.78;;;15.40;92.80;;;;;;5057367;28;20075;-65
2022/09/25 10:55:33;;;;;;;9.65;5.70;;;15.60;92.10;;;;;;5056905;28;20025;-65
2022/09/25 10:58:05;;;;;;;10.35;6.80;;;15.60;91.20;;;;;;5051878;28;20116;-65
2022/09/25 11:00:36;;;;;;;8.63;6.13;;;15.50;91.20;;;;;;5048548;28;20059;-66
2022/09/25 11:03:04;;;;;;;8.13;5.38;;;15.60;90.90;;;;;;5056934;28;20017;-65
2022/09/25 11:05:34;;;;;;;10.77;5.80;;;15.80;90.60;;;;;;5055773;28;20017;-65
2022/09/25 11:08:03;;;;;;;10.15;5.82;;;16.30;89.60;;;;;;5057095;28;20028;-65
2022/09/25 11:10:35;;;;;;;10.43;5.47;;;16.80;88.40;;;;;;5048806;28;20029;-66
2022/09/25 11:13:07;;;;;;;8.40;5.50;;;17.20;86.50;;;;;;5042434;28;20017;-65
2022/09/25 11:15:37;;;;;;;10.65;5.68;;;17.50;84.70;;;;;;5048290;28;20036;-65
2022/09/25 11:18:04;;;;;;;9.82;5.88;;;17.20;85.90;;;;;;5049944;28;20072;-65
2022/09/25 11:20:32;;;;;;;10.98;7.85;;;16.80;86.90;;;;;;5057682;28;20041;-64
2022/09/25 11:23:27;;;;;;;10.15;7.30;;;16.10;89.10;;;;;;5047490;28;20078;-64
2022/09/25 11:26:34;;;;;;;11.98;7.57;;;15.60;91.90;;;;;;5045744;28;20032;-63
2022/09/25 11:29:18;;;;;;;10.93;6.78;;;15.40;92.00;;;;;;5035037;28;20126;-63
2022/09/25 11:31:54;;;;;;;11.15;6.72;;;15.40;93.30;;;;;;5058611;28;20422;-64
2022/09/25 11:34:48;;;;;;;11.45;6.47;;;15.90;93.70;;;;;;5050346;28;20036;-65
2022/09/25 11:37:42;;;;;;;9.65;6.40;;;16.60;90.70;;;;;;5058309;28;20314;-65
2022/09/25 11:43:35;;;;;;;11.05;7.78;;;16.60;91.10;;;;;;5050299;28;20083;-66
2022/09/25 11:46:52;;;;;;;11.32;7.13;;;16.30;91.70;;;;;;5057867;28;20112;-66
2022/09/25 11:49:26;;;;;;;12.07;8.05;;;15.90;92.40;;;;;;5015562;28;20029;-66
2022/09/25 11:52:36;;;;;;;11.13;7.70;;;15.60;93.70;;;;;;5050722;28;20463;-66
2022/09/25 11:55:30;;;;;;;12.82;7.82;;;14.90;93.60;;;;;;5005390;28;20041;-65
2022/09/25 11:58:13;;;;;;;14.90;8.77;;;14.50;94.70;;;;;;5049437;28;20043;-66
2022/09/25 12:00:43;;;;;;;14.68;10.18;;;14.20;96.70;;;;;;5056306;28;20131;-66
2022/09/25 12:03:39;;;;;;;12.25;8.85;;;14.40;97.90;;;;;;5048512;28;20021;-65
2022/09/25 12:06:18;;;;;;;14.18;10.00;;;14.80;95.80;;;;;;5053308;28;20044;-66
2022/09/25 12:09:02;;;;;;;14.40;9.63;;;15.30;95.50;;;;;;5055426;28;20025;-65
2022/09/25 12:11:52;;;;;;;13.13;7.97;;;16.00;93.70;;;;;;5055114;28;20033;-66
2022/09/25 12:14:35;;;;;;;14.70;8.90;;;16.90;90.20;;;;;;5056062;28;20309;-65
2022/09/25 12:17:13;;;;;;;10.65;7.03;;;16.80;88.20;;;;;;5053879;28;20175;-65
2022/09/25 12:20:16;;;;;;;14.02;8.80;;;16.60;88.70;;;;;;5046104;28;20066;-65
2022/09/25 12:22:59;;;;;;;14.32;8.90;;;16.30;90.40;;;;;;5054369;28;20119;-65
2022/09/25 12:25:39;;;;;;;11.77;8.23;;;16.10;90.50;;;;;;5048599;28;20032;-66
2022/09/25 12:28:19;;;;;;;14.15;8.80;;;15.60;91.90;;;;;;5056545;28;20314;-66
2022/09/25 12:31:14;;;;;;;15.20;9.70;;;15.20;93.90;;;;;;5047398;28;20048;-66
2022/09/25 12:33:58;;;;;;;16.40;10.80;;;14.50;95.40;;;;;;5046494;28;20033;-67
2022/09/25 12:36:38;;;;;;;16.27;10.95;;;14.10;96.50;;;;;;5056871;28;20070;-65
2022/09/25 12:39:30;;;;;;;14.77;10.90;;;13.80;97.30;;;;;;5046765;28;20163;-65
2022/09/25 12:42:07;;;;;;;15.90;10.00;;;13.70;97.80;;;;;;5035132;28;20036;-65
2022/09/25 12:44:53;;;;;;;12.68;9.35;;;13.60;98.00;;;;;;5055416;28;20029;-65
2022/09/25 12:47:56;;;;;;;12.85;10.00;;;13.60;98.00;;;;;;5050896;28;20037;-65
2022/09/25 12:50:27;;;;;;;13.50;9.45;;;13.40;98.00;;;;;;5054713;28;20152;-66
2022/09/25 12:53:20;;;;;;;15.07;10.23;;;13.30;98.00;;;;;;5056807;28;20112;-66
2022/09/25 12:55:54;;;;;;;13.23;9.98;;;13.30;98.00;;;;;;5053126;28;20430;-65
2022/09/25 12:58:32;;;;;;;16.08;10.82;;;13.30;98.00;;;;;;5051581;28;20025;-64
2022/09/25 13:01:22;;;;;;;13.27;8.93;;;13.50;98.00;;;;;;5046430;28;20029;-66
2022/09/25 13:04:03;;;;;;;14.95;9.68;;;14.00;97.40;;;;;;5051494;28;20037;-66
2022/09/25 13:06:41;;;;;;;13.40;9.55;;;14.60;95.50;;;;;;5051728;28;20330;-66
2022/09/25 13:09:18;;;;;;;13.98;9.23;;;15.00;93.60;;;;;;5045455;28;20080;-66
2022/09/25 13:11:50;;;;;;;13.35;9.60;;;15.40;93.30;;;;;;5054159;28;20025;-66
2022/09/25 13:14:27;;;;;;;11.38;7.90;;;16.00;92.80;;;;;;5051512;28;20382;-66
2022/09/25 13:16:56;;;;;;;11.40;7.88;;;16.70;90.50;;;;;;5054480;28;20103;-66
2022/09/25 13:19:33;;;;;;;11.52;7.63;;;17.40;87.50;;;;;;5050093;28;20039;-66
2022/09/25 13:22:23;;;;;;;15.10;8.43;;;17.30;85.20;;;;;;5039703;28;20322;-66
2022/09/25 13:25:11;;;;;;;12.60;7.95;;;16.90;85.80;;;;;;5036605;28;20404;-65